createdAt,value
2023-05-08T00:02:13.081Z,19.36
2023-05-08T00:04:40.025Z,19.02
2023-05-08T00:07:06.474Z,19.14
2023-05-08T00:09:35.220Z,19.03
2023-05-08T00:12:01.669Z,19.43
2023-05-08T00:14:30.416Z,19.00
2023-05-08T00:16:57.051Z,19.58
2023-05-08T00:19:23.432Z,18.84
2023-05-08T00:21:49.887Z,19.18
2023-05-08T00:24:16.266Z,19.18
2023-05-08T00:26:44.313Z,19.25
2023-05-08T00:29:11.297Z,19.01
2023-05-08T00:31:37.742Z,19.15
2023-05-08T00:34:04.246Z,19.46
2023-05-08T00:36:30.609Z,19.34
2023-05-08T00:38:59.868Z,18.84
2023-05-08T00:41:26.283Z,18.78
2023-05-08T00:43:53.541Z,19.34
2023-05-08T00:46:20.513Z,18.55
2023-05-08T00:48:47.390Z,18.96
2023-05-08T00:51:15.076Z,18.51
2023-05-08T00:53:43.591Z,19.07
2023-05-08T00:56:14.930Z,19.40
2023-05-08T00:58:42.404Z,18.82
2023-05-08T01:01:09.151Z,18.89
2023-05-08T01:03:39.653Z,18.97
2023-05-08T01:06:06.826Z,18.75
2023-05-08T01:08:33.486Z,19.26
2023-05-08T01:11:15.213Z,19.31
2023-05-08T01:13:44.348Z,19.16
2023-05-08T01:16:35.745Z,18.42
2023-05-08T01:19:18.024Z,18.84
2023-05-08T01:21:58.182Z,18.68
2023-05-08T01:24:51.566Z,19.30
2023-05-08T01:28:17.101Z,19.01
2023-05-08T01:31:04.421Z,19.17
2023-05-08T01:33:53.455Z,18.96
2023-05-08T01:36:50.266Z,19.23
2023-05-08T01:39:29.385Z,19.19
2023-05-08T01:42:13.778Z,19.02
2023-05-08T01:44:52.108Z,19.30
2023-05-08T01:47:23.199Z,19.10
2023-05-08T01:49:56.052Z,18.18
2023-05-08T01:52:34.535Z,19.17
2023-05-08T01:55:08.702Z,19.33
2023-05-08T01:57:38.278Z,19.14
2023-05-08T02:00:06.027Z,19.18
2023-05-08T02:02:34.422Z,18.78
2023-05-08T02:05:06.904Z,19.11
2023-05-08T02:07:37.793Z,18.89
2023-05-08T02:10:06.316Z,19.02
2023-05-08T02:12:34.127Z,19.14
2023-05-08T02:15:02.344Z,19.22
2023-05-08T02:17:31.546Z,18.89
2023-05-08T02:20:01.551Z,19.15
2023-05-08T02:22:30.795Z,19.36
2023-05-08T02:25:03.599Z,18.77
2023-05-08T02:27:31.376Z,18.92
2023-05-08T02:30:01.784Z,19.32
2023-05-08T02:32:30.917Z,19.02
2023-05-08T02:35:03.247Z,18.70
2023-05-08T02:37:31.913Z,19.24
2023-05-08T02:39:58.880Z,19.19
2023-05-08T02:42:26.582Z,19.02
2023-05-08T02:44:53.002Z,19.14
2023-05-08T02:47:24.229Z,19.27
2023-05-08T02:49:54.954Z,18.53
2023-05-08T02:52:30.718Z,19.35
2023-05-08T02:55:18.601Z,19.30
2023-05-08T02:58:03.987Z,19.23
2023-05-08T03:00:35.250Z,18.28
2023-05-08T03:03:22.974Z,19.26
2023-05-08T03:05:53.855Z,19.28
2023-05-08T03:08:30.962Z,19.31
2023-05-08T03:11:01.114Z,18.68
2023-05-08T03:13:31.185Z,19.38
2023-05-08T03:16:01.372Z,19.14
2023-05-08T03:18:59.777Z,19.00
2023-05-08T03:21:28.939Z,19.26
2023-05-08T03:25:36.340Z,19.12
2023-05-08T03:28:05.079Z,19.07
2023-05-08T03:30:36.243Z,19.13
2023-05-08T03:33:04.822Z,19.35
2023-05-08T03:35:31.864Z,19.24
2023-05-08T03:37:58.842Z,19.04
2023-05-08T03:40:27.914Z,18.92
2023-05-08T03:42:55.109Z,19.10
2023-05-08T03:45:22.452Z,18.55
2023-05-08T03:48:09.686Z,19.07
2023-05-08T03:50:38.288Z,18.46
2023-05-08T03:53:04.754Z,19.16
2023-05-08T03:55:32.212Z,18.49
2023-05-08T03:58:21.631Z,18.65
2023-05-08T04:00:51.074Z,18.82
2023-05-08T04:03:39.708Z,19.23
2023-05-08T04:06:13.809Z,18.90
2023-05-08T04:08:48.223Z,18.93
2023-05-08T04:11:31.039Z,19.16
2023-05-08T04:14:08.278Z,19.12
2023-05-08T04:16:45.817Z,19.08
2023-05-08T04:19:19.672Z,18.83
2023-05-08T04:21:48.030Z,19.02
2023-05-08T04:24:17.015Z,18.57
2023-05-08T04:26:45.472Z,18.59
2023-05-08T04:29:12.529Z,18.85
2023-05-08T04:31:40.812Z,19.04
2023-05-08T04:34:09.148Z,19.14
2023-05-08T04:36:35.821Z,19.24
2023-05-08T04:39:02.282Z,19.14
2023-05-08T04:41:28.799Z,18.67
2023-05-08T04:43:55.312Z,19.18
2023-05-08T04:46:21.802Z,19.28
2023-05-08T04:48:48.206Z,18.75
2023-05-08T04:51:14.506Z,19.20
2023-05-08T04:53:40.826Z,19.32
2023-05-08T04:56:07.208Z,19.22
2023-05-08T04:58:33.612Z,19.03
2023-05-08T05:01:04.270Z,19.19
2023-05-08T05:03:30.868Z,19.21
2023-05-08T05:05:58.996Z,19.30
2023-05-08T05:08:26.008Z,19.39
2023-05-08T05:10:52.640Z,18.81
2023-05-08T05:13:19.772Z,19.40
2023-05-08T05:15:46.340Z,19.34
2023-05-08T05:18:13.008Z,18.98
2023-05-08T05:20:39.475Z,19.52
2023-05-08T05:23:05.906Z,18.88
2023-05-08T05:25:32.279Z,19.03
2023-05-08T05:27:58.607Z,19.66
2023-05-08T05:30:24.987Z,19.65
2023-05-08T05:32:51.417Z,19.21
2023-05-08T05:35:17.958Z,19.91
2023-05-08T05:37:44.421Z,19.55
2023-05-08T05:40:13.255Z,19.63
2023-05-08T05:42:39.590Z,20.12
2023-05-08T05:45:06.622Z,20.17
2023-05-08T05:47:33.004Z,20.13
2023-05-08T05:49:59.476Z,20.08
2023-05-08T05:52:25.847Z,19.46
2023-05-08T05:54:52.318Z,19.44
2023-05-08T05:57:18.780Z,20.02
2023-05-08T05:59:52.271Z,19.48
2023-05-08T06:02:20.324Z,20.02
2023-05-08T06:04:46.935Z,19.35
2023-05-08T06:07:13.334Z,19.99
2023-05-08T06:09:39.696Z,19.49
2023-05-08T06:12:06.264Z,20.05
2023-05-08T06:14:35.199Z,20.00
2023-05-08T06:17:01.601Z,20.24
2023-05-08T06:19:28.597Z,20.38
2023-05-08T06:21:55.369Z,19.69
2023-05-08T06:24:22.495Z,20.60
2023-05-08T06:26:48.878Z,19.86
2023-05-08T06:29:16.505Z,20.58
2023-05-08T06:31:45.188Z,20.44
2023-05-08T06:34:11.718Z,20.38
2023-05-08T06:36:38.075Z,20.32
2023-05-08T06:39:06.087Z,20.62
2023-05-08T06:41:32.498Z,21.01
2023-05-08T06:43:59.363Z,20.74
2023-05-08T06:46:26.012Z,20.98
2023-05-08T06:48:52.510Z,20.86
2023-05-08T06:51:19.858Z,20.72
2023-05-08T06:53:46.226Z,20.08
2023-05-08T06:56:12.596Z,20.64
2023-05-08T06:58:38.980Z,20.84
2023-05-08T07:01:05.594Z,20.74
2023-05-08T07:03:32.021Z,20.67
2023-05-08T07:06:01.413Z,20.45
2023-05-08T07:08:30.031Z,20.22
2023-05-08T07:10:56.375Z,20.61
2023-05-08T07:13:22.904Z,19.63
2023-05-08T07:15:49.418Z,19.57
2023-05-08T07:18:15.871Z,20.58
2023-05-08T07:20:42.420Z,20.28
2023-05-08T07:23:12.010Z,20.52
2023-05-08T07:25:38.392Z,19.89
2023-05-08T07:28:07.590Z,20.37
2023-05-08T07:30:36.832Z,20.55
2023-05-08T07:33:03.944Z,19.46
2023-05-08T07:35:30.443Z,20.46
2023-05-08T07:37:56.971Z,20.09
2023-05-08T07:40:23.529Z,20.15
2023-05-08T07:42:52.280Z,19.76
2023-05-08T07:45:18.643Z,20.74
2023-05-08T07:47:58.154Z,20.64
2023-05-08T07:50:33.290Z,20.92
2023-05-08T07:52:59.803Z,20.35
2023-05-08T07:55:26.239Z,20.98
2023-05-08T07:57:52.662Z,21.12
2023-05-08T08:00:19.215Z,21.12
2023-05-08T08:02:48.144Z,21.02
2023-05-08T08:05:14.937Z,20.49
2023-05-08T08:07:41.560Z,20.50
2023-05-08T08:10:10.830Z,20.46
2023-05-08T08:12:37.389Z,20.80
2023-05-08T08:15:04.509Z,20.74
2023-05-08T08:17:30.943Z,21.27
2023-05-08T08:20:01.995Z,21.35
2023-05-08T08:22:30.716Z,20.78
2023-05-08T08:24:57.376Z,21.09
2023-05-08T08:27:24.182Z,20.51
2023-05-08T08:29:52.579Z,21.15
2023-05-08T08:32:25.371Z,21.19
2023-05-08T08:34:52.106Z,21.30
2023-05-08T08:37:23.895Z,20.78
2023-05-08T08:39:50.331Z,21.58
2023-05-08T08:42:16.814Z,21.31
2023-05-08T08:44:45.541Z,22.16
2023-05-08T08:47:12.888Z,22.02
2023-05-08T08:49:44.544Z,22.45
2023-05-08T08:52:32.914Z,22.92
2023-05-08T08:55:04.674Z,22.63
2023-05-08T08:57:40.816Z,22.74
2023-05-08T09:00:11.215Z,23.39
2023-05-08T09:02:37.913Z,23.32
2023-05-08T09:05:04.959Z,22.74
2023-05-08T09:07:33.784Z,23.36
2023-05-08T09:10:06.077Z,23.79
2023-05-08T09:12:32.526Z,23.82
2023-05-08T09:14:58.963Z,23.76
2023-05-08T09:17:25.663Z,23.05
2023-05-08T09:19:54.505Z,23.06
2023-05-08T09:22:37.571Z,23.53
2023-05-08T09:25:04.239Z,23.62
2023-05-08T09:27:31.921Z,22.71
2023-05-08T09:30:07.181Z,23.51
2023-05-08T09:32:42.104Z,23.07
2023-05-08T09:35:09.958Z,24.23
2023-05-08T09:37:41.564Z,23.54
2023-05-08T09:40:17.261Z,24.53
2023-05-08T09:42:43.879Z,24.13
2023-05-08T09:45:11.153Z,24.73
2023-05-08T09:47:39.332Z,25.01
2023-05-08T09:50:19.652Z,25.03
2023-05-08T09:52:53.011Z,25.30
2023-05-08T09:55:20.015Z,25.39
2023-05-08T09:57:57.972Z,25.87
2023-05-08T10:00:31.329Z,26.10
2023-05-08T10:03:02.795Z,26.08
2023-05-08T10:05:32.216Z,26.23
2023-05-08T10:08:18.455Z,25.78
2023-05-08T10:10:45.017Z,25.76
2023-05-08T10:13:14.464Z,25.93
2023-05-08T10:15:42.854Z,25.88
2023-05-08T10:18:13.296Z,26.13
2023-05-08T10:20:42.204Z,25.56
2023-05-08T10:23:14.087Z,26.30
2023-05-08T10:25:45.436Z,26.24
2023-05-08T10:28:36.921Z,26.96
2023-05-08T10:31:07.174Z,27.05
2023-05-08T10:33:35.523Z,27.10
2023-05-08T10:36:02.335Z,27.12
2023-05-08T10:38:33.528Z,26.71
2023-05-08T10:41:01.140Z,27.09
2023-05-08T10:43:32.972Z,26.48
2023-05-08T10:46:07.852Z,26.86
2023-05-08T10:48:48.039Z,26.98
2023-05-08T10:51:27.755Z,27.07
2023-05-08T10:54:02.038Z,27.73
2023-05-08T10:56:28.790Z,29.30
2023-05-08T10:58:57.512Z,29.62
2023-05-08T11:01:25.148Z,29.57
2023-05-08T11:03:52.482Z,29.74
2023-05-08T11:06:45.159Z,30.01
2023-05-08T11:09:31.093Z,31.25
2023-05-08T11:12:26.639Z,31.26
2023-05-08T11:15:01.479Z,29.35
2023-05-08T11:17:28.625Z,28.03
2023-05-08T11:20:03.824Z,27.66
2023-05-08T11:22:39.037Z,26.38
2023-05-08T11:25:10.329Z,26.94
2023-05-08T11:27:49.052Z,26.88
2023-05-08T11:30:37.566Z,26.74
2023-05-08T11:33:04.434Z,26.44
2023-05-08T11:35:44.784Z,26.36
2023-05-08T11:38:18.719Z,26.24
2023-05-08T11:40:58.134Z,26.07
2023-05-08T11:43:33.644Z,26.02
2023-05-08T11:46:01.715Z,25.85
2023-05-08T11:48:28.170Z,25.66
2023-05-08T11:50:54.622Z,25.58
2023-05-08T11:53:21.221Z,25.07
2023-05-08T11:55:48.873Z,25.71
2023-05-08T11:58:16.231Z,24.69
2023-05-08T12:00:45.149Z,25.02
2023-05-08T12:03:16.447Z,25.31
2023-05-08T12:05:44.426Z,24.92
2023-05-08T12:08:12.271Z,24.74
2023-05-08T12:10:51.585Z,24.92
2023-05-08T12:13:26.473Z,25.18
2023-05-08T12:16:00.638Z,24.58
2023-05-08T12:18:29.172Z,24.99
2023-05-08T12:21:00.370Z,25.11
2023-05-08T12:23:29.248Z,24.97
2023-05-08T12:25:59.152Z,25.10
2023-05-08T12:28:25.628Z,24.40
2023-05-08T12:30:52.175Z,24.97
2023-05-08T12:33:19.894Z,24.37
2023-05-08T12:35:46.443Z,24.64
2023-05-08T12:38:12.955Z,24.30
2023-05-08T12:40:48.917Z,23.79
2023-05-08T12:43:15.246Z,23.69
2023-05-08T12:45:42.722Z,24.22
2023-05-08T12:48:11.483Z,23.89
2023-05-08T12:50:42.071Z,23.63
2023-05-08T12:53:17.146Z,23.28
2023-05-08T12:55:54.757Z,23.44
2023-05-08T12:58:25.604Z,23.46
2023-05-08T13:00:53.276Z,23.46
2023-05-08T13:03:27.846Z,23.27
2023-05-08T13:05:56.641Z,23.48
2023-05-08T13:08:34.208Z,23.10
2023-05-08T13:11:02.500Z,23.40
2023-05-08T13:13:33.821Z,23.33
2023-05-08T13:16:05.930Z,23.43
2023-05-08T13:18:33.731Z,23.33
2023-05-08T13:21:01.903Z,23.09
2023-05-08T13:23:28.743Z,23.66
2023-05-08T13:25:55.614Z,23.44
2023-05-08T13:28:21.980Z,23.43
2023-05-08T13:30:53.447Z,21.97
2023-05-08T13:33:19.769Z,22.46
2023-05-08T13:35:46.114Z,22.22
2023-05-08T13:38:12.475Z,22.15
2023-05-08T13:40:38.876Z,22.03
2023-05-08T13:43:05.572Z,22.02
2023-05-08T13:45:32.844Z,21.88
2023-05-08T13:47:59.478Z,22.71
2023-05-08T13:50:25.875Z,22.91
2023-05-08T13:52:54.654Z,22.74
2023-05-08T13:55:22.983Z,23.34
2023-05-08T13:57:50.152Z,23.30
2023-05-08T14:00:17.020Z,23.40
2023-05-08T14:02:43.620Z,23.26
2023-05-08T14:05:10.758Z,23.28
2023-05-08T14:07:37.319Z,22.96
2023-05-08T14:10:04.450Z,23.40
2023-05-08T14:12:31.038Z,23.30
2023-05-08T14:14:58.110Z,23.20
2023-05-08T14:17:24.515Z,22.84
2023-05-08T14:19:50.884Z,23.40
2023-05-08T14:22:17.294Z,23.29
2023-05-08T14:24:44.310Z,23.51
2023-05-08T14:27:11.189Z,22.67
2023-05-08T14:29:37.656Z,23.55
2023-05-08T14:32:04.269Z,22.92
2023-05-08T14:34:30.884Z,23.57
2023-05-08T14:36:57.232Z,23.42
2023-05-08T14:39:23.836Z,22.79
2023-05-08T14:42:14.384Z,22.79
2023-05-08T14:44:36.835Z,23.40
2023-05-08T14:47:03.341Z,23.26
2023-05-08T14:49:37.546Z,23.65
2023-05-08T14:52:06.132Z,23.79
2023-05-08T14:54:32.888Z,23.43
2023-05-08T14:57:01.477Z,23.70
2023-05-08T14:59:28.093Z,23.43
2023-05-08T15:01:54.604Z,23.63
2023-05-08T15:04:21.286Z,23.64
2023-05-08T15:06:47.986Z,24.25
2023-05-08T15:09:16.321Z,24.17
2023-05-08T15:11:43.013Z,24.69
2023-05-08T15:14:09.352Z,24.70
2023-05-08T15:16:35.791Z,25.40
2023-05-08T15:19:02.238Z,25.22
2023-05-08T15:21:28.774Z,25.40
2023-05-08T15:23:57.432Z,25.92
2023-05-08T15:26:23.874Z,26.00
2023-05-08T15:28:50.961Z,26.10
2023-05-08T15:31:18.174Z,26.20
2023-05-08T15:33:46.462Z,25.91
2023-05-08T15:36:13.479Z,25.90
2023-05-08T15:38:41.120Z,25.71
2023-05-08T15:41:07.974Z,26.20
2023-05-08T15:43:34.327Z,26.57
2023-05-08T15:46:00.745Z,26.65
2023-05-08T15:48:27.241Z,26.80
2023-05-08T15:50:53.595Z,26.42
2023-05-08T15:53:19.977Z,26.53
2023-05-08T15:55:46.336Z,26.82
2023-05-08T15:58:12.718Z,26.91
2023-05-08T16:00:44.517Z,27.02
2023-05-08T16:03:11.966Z,26.99
2023-05-08T16:05:39.395Z,26.54
2023-05-08T16:08:05.971Z,26.28
2023-05-08T16:10:32.320Z,26.02
2023-05-08T16:12:58.747Z,26.49
2023-05-08T16:15:26.499Z,25.89
2023-05-08T16:17:52.872Z,25.80
2023-05-08T16:20:19.514Z,25.87
2023-05-08T16:22:45.985Z,26.09
2023-05-08T16:25:12.812Z,26.44
2023-05-08T16:27:39.333Z,26.37
2023-05-08T16:30:06.670Z,25.76
2023-05-08T16:32:33.020Z,25.41
2023-05-08T16:34:59.401Z,25.85
2023-05-08T16:37:25.848Z,26.10
2023-05-08T16:39:52.165Z,25.49
2023-05-08T16:42:21.355Z,26.01
2023-05-08T16:44:47.761Z,25.48
2023-05-08T16:47:14.498Z,25.44
2023-05-08T16:49:40.977Z,25.86
2023-05-08T16:52:07.621Z,25.75
2023-05-08T16:54:33.962Z,25.10
2023-05-08T16:57:00.294Z,25.49
2023-05-08T16:59:26.881Z,25.34
2023-05-08T17:01:53.219Z,25.43
2023-05-08T17:04:19.634Z,25.24
2023-05-08T17:06:46.064Z,25.30
2023-05-08T17:09:12.418Z,25.10
2023-05-08T17:11:38.807Z,24.36
2023-05-08T17:14:07.512Z,24.15
2023-05-08T17:16:34.031Z,25.14
2023-05-08T17:19:00.562Z,24.36
2023-05-08T17:21:27.041Z,24.20
2023-05-08T17:23:53.375Z,24.87
2023-05-08T17:26:19.756Z,24.80
2023-05-08T17:28:46.134Z,24.82
2023-05-08T17:31:13.090Z,24.86
2023-05-08T17:33:39.415Z,24.72
2023-05-08T17:36:06.108Z,24.97
2023-05-08T17:38:32.526Z,24.91
2023-05-08T17:40:58.925Z,24.83
2023-05-08T17:43:28.426Z,24.85
2023-05-08T17:45:54.838Z,24.39
2023-05-08T17:48:21.243Z,24.83
2023-05-08T17:50:47.643Z,24.06
2023-05-08T17:53:14.035Z,24.66
2023-05-08T17:55:40.553Z,24.75
2023-05-08T17:58:06.932Z,24.65
2023-05-08T18:00:33.298Z,24.08
2023-05-08T18:02:59.731Z,24.54
2023-05-08T18:05:26.370Z,24.38
2023-05-08T18:07:53.854Z,24.43
2023-05-08T18:10:21.048Z,23.96
2023-05-08T18:12:47.569Z,24.31
2023-05-08T18:15:14.152Z,24.13
2023-05-08T18:17:40.989Z,24.16
2023-05-08T18:20:09.270Z,24.31
2023-05-08T18:22:35.738Z,23.71
2023-05-08T18:25:02.389Z,24.06
2023-05-08T18:27:28.954Z,24.07
2023-05-08T18:29:55.333Z,23.85
2023-05-08T18:32:21.708Z,23.55
2023-05-08T18:34:48.089Z,24.09
2023-05-08T18:37:14.512Z,23.96
2023-05-08T18:39:40.840Z,23.77
2023-05-08T18:42:07.368Z,23.60
2023-05-08T18:44:34.143Z,22.89
2023-05-08T18:47:01.658Z,23.74
2023-05-08T18:49:29.187Z,23.15
2023-05-08T18:51:55.609Z,23.63
2023-05-08T18:54:26.264Z,23.11
2023-05-08T18:57:02.284Z,22.97
2023-05-08T18:59:28.947Z,23.39
2023-05-08T19:01:55.386Z,23.40
2023-05-08T19:04:21.716Z,23.43
2023-05-08T19:06:48.171Z,23.42
2023-05-08T19:09:14.652Z,23.00
2023-05-08T19:11:40.999Z,23.15
2023-05-08T19:14:07.527Z,23.27
2023-05-08T19:16:33.968Z,22.58
2023-05-08T19:19:00.342Z,22.70
2023-05-08T19:21:27.178Z,22.80
2023-05-08T19:23:53.507Z,22.43
2023-05-08T19:26:19.922Z,22.30
2023-05-08T19:28:46.298Z,22.30
2023-05-08T19:31:12.728Z,22.63
2023-05-08T19:33:39.133Z,22.88
2023-05-08T19:36:05.601Z,22.79
2023-05-08T19:38:32.085Z,22.30
2023-05-08T19:40:59.032Z,22.41
2023-05-08T19:43:28.074Z,22.92
2023-05-08T19:45:55.514Z,22.97
2023-05-08T19:48:25.169Z,22.43
2023-05-08T19:50:54.663Z,22.80
2023-05-08T19:53:33.846Z,22.24
2023-05-08T19:56:18.441Z,22.71
2023-05-08T19:58:44.710Z,22.88
2023-05-08T20:01:11.317Z,22.12
2023-05-08T20:03:37.882Z,22.69
2023-05-08T20:06:04.442Z,22.52
2023-05-08T20:08:30.848Z,22.14
2023-05-08T20:11:02.121Z,21.89
2023-05-08T20:13:28.489Z,21.78
2023-05-08T20:15:54.884Z,21.89
2023-05-08T20:18:21.298Z,21.71
2023-05-08T20:20:47.609Z,21.72
2023-05-08T20:23:13.958Z,21.57
2023-05-08T20:25:40.464Z,21.48
2023-05-08T20:28:07.119Z,21.78
2023-05-08T20:30:33.635Z,21.87
2023-05-08T20:33:04.732Z,21.99
2023-05-08T20:35:32.090Z,22.05
2023-05-08T20:37:58.512Z,21.82
2023-05-08T20:40:24.921Z,21.82
2023-05-08T20:42:51.259Z,21.86
2023-05-08T20:45:17.782Z,21.86
2023-05-08T20:47:44.182Z,21.74
2023-05-08T20:50:10.804Z,21.73
2023-05-08T20:52:38.464Z,21.57
2023-05-08T20:55:06.369Z,21.62
2023-05-08T20:57:32.691Z,21.76
2023-05-08T20:59:59.148Z,21.80
2023-05-08T21:02:25.591Z,21.52
2023-05-08T21:04:52.781Z,21.70
2023-05-08T21:07:19.164Z,21.62
2023-05-08T21:09:45.870Z,21.66
2023-05-08T21:12:12.261Z,21.73
2023-05-08T21:14:38.602Z,21.12
2023-05-08T21:17:05.078Z,21.91
2023-05-08T21:19:31.995Z,21.70
2023-05-08T21:21:58.409Z,21.20
2023-05-08T21:24:25.646Z,21.64
2023-05-08T21:26:53.135Z,21.52
2023-05-08T21:29:19.933Z,21.65
2023-05-08T21:31:46.295Z,21.67
2023-05-08T21:34:13.336Z,21.72
2023-05-08T21:36:39.699Z,21.78
2023-05-08T21:39:06.062Z,21.64
2023-05-08T21:41:32.918Z,21.30
2023-05-08T21:43:59.324Z,21.65
2023-05-08T21:46:25.693Z,21.81
2023-05-08T21:48:52.048Z,21.79
2023-05-08T21:51:20.850Z,21.09
2023-05-08T21:53:47.212Z,21.73
2023-05-08T21:56:13.574Z,21.51
2023-05-08T21:58:40.008Z,21.55
2023-05-08T22:01:06.647Z,21.69
2023-05-08T22:03:33.234Z,21.45
2023-05-08T22:05:59.675Z,20.97
2023-05-08T22:08:26.328Z,21.12
2023-05-08T22:10:52.762Z,21.42
2023-05-08T22:13:19.129Z,21.17
2023-05-08T22:15:45.716Z,21.40
2023-05-08T22:18:12.116Z,21.14
2023-05-08T22:20:38.454Z,21.07
2023-05-08T22:23:04.809Z,21.22
2023-05-08T22:25:31.227Z,21.00
2023-05-08T22:27:57.703Z,20.85
2023-05-08T22:30:24.458Z,21.07
2023-05-08T22:32:56.145Z,21.34
2023-05-08T22:35:24.420Z,21.08
2023-05-08T22:37:52.372Z,21.16
2023-05-08T22:40:18.855Z,21.16
2023-05-08T22:42:50.196Z,21.12
2023-05-08T22:45:16.948Z,20.83
2023-05-08T22:47:43.724Z,20.68
2023-05-08T22:50:11.581Z,20.70
2023-05-08T22:52:39.051Z,20.65
2023-05-08T22:55:06.957Z,20.15
2023-05-08T22:57:33.434Z,20.57
2023-05-08T22:59:59.888Z,20.59
2023-05-08T23:02:31.569Z,19.82
2023-05-08T23:04:57.934Z,20.48
2023-05-08T23:07:24.254Z,20.39
2023-05-08T23:09:50.588Z,19.99
2023-05-08T23:12:16.918Z,20.29
2023-05-08T23:14:43.270Z,20.18
2023-05-08T23:17:13.835Z,19.71
2023-05-08T23:19:41.863Z,20.19
2023-05-08T23:22:08.952Z,19.70
2023-05-08T23:24:35.976Z,19.85
2023-05-08T23:27:02.311Z,19.98
2023-05-08T23:29:28.909Z,19.94
2023-05-08T23:31:55.299Z,19.79
2023-05-08T23:34:21.636Z,20.01
2023-05-08T23:36:48.032Z,19.77
2023-05-08T23:39:14.467Z,20.06
2023-05-08T23:41:40.799Z,19.93
2023-05-08T23:44:07.114Z,19.70
2023-05-08T23:46:33.513Z,19.91
2023-05-08T23:49:00.302Z,19.60
2023-05-08T23:51:26.951Z,19.45
2023-05-08T23:53:53.349Z,19.06
2023-05-08T23:56:19.659Z,19.43
2023-05-08T23:58:45.997Z,19.42
